Time;durP1;ratioP1;P1;durP2;ratioP2;P2;SDS_P1;SDS_P2;PMS_P1;PMS_P2;Temp;Humidity;BMP_temperature;BMP_pressure;BME280_temperature;BME280_humidity;BME280_pressure;Samples;Min_cycle;Max_cycle;Signal;HPM_P1;HPM_P2
2022/11/08 00:01:40;;;;;;;13.77;1.98;;;12.40;99.90;;;;;;4975024;28;20081;-91
2022/11/08 00:04:08;;;;;;;12.95;2.05;;;12.40;99.90;;;;;;4958180;28;20030;-91
2022/11/08 00:14:48;;;;;;;11.82;1.95;;;12.50;99.90;;;;;;4975080;28;20045;-90
2022/11/08 00:17:16;;;;;;;11.38;2.65;;;12.50;99.90;;;;;;4957886;28;20027;-91
2022/11/08 00:19:42;;;;;;;10.82;2.45;;;12.50;99.90;;;;;;4957301;28;20027;-91
2022/11/08 00:22:09;;;;;;;10.57;2.00;;;12.60;99.90;;;;;;4957256;28;20026;-92
2022/11/08 00:24:35;;;;;;;9.93;2.03;;;12.60;99.90;;;;;;4969875;28;20031;-92
2022/11/08 00:27:03;;;;;;;9.52;1.88;;;12.60;99.90;;;;;;4956593;28;20378;-91
2022/11/08 00:29:29;;;;;;;10.52;1.65;;;12.60;99.90;;;;;;4957641;28;20105;-92
2022/11/08 00:31:55;;;;;;;12.38;1.98;;;12.60;99.90;;;;;;4958898;28;20054;-93
2022/11/08 00:34:20;;;;;;;11.63;1.75;;;12.60;99.90;;;;;;4957716;28;20079;-91
2022/11/08 00:36:46;;;;;;;10.80;1.50;;;12.60;99.90;;;;;;4957321;28;20023;-92
2022/11/08 00:39:12;;;;;;;9.65;1.70;;;12.60;99.90;;;;;;4957286;28;20081;-92
2022/11/08 00:41:37;;;;;;;8.98;1.60;;;12.70;99.90;;;;;;4973320;28;20512;-91
2022/11/08 00:44:03;;;;;;;9.80;1.75;;;12.70;99.90;;;;;;4956780;28;20054;-91
2022/11/08 00:46:29;;;;;;;7.78;1.95;;;12.70;99.90;;;;;;4956608;28;20089;-93
2022/11/08 00:48:54;;;;;;;8.20;1.58;;;12.80;99.90;;;;;;4957193;28;20033;-91
2022/11/08 00:51:20;;;;;;;7.13;1.75;;;12.80;99.90;;;;;;4956889;28;20437;-91
2022/11/08 00:53:46;;;;;;;7.68;1.15;;;12.80;99.90;;;;;;4955072;28;20543;-91
2022/11/08 00:56:12;;;;;;;6.72;1.25;;;12.80;99.90;;;;;;4954915;28;20031;-91
2022/11/08 00:58:40;;;;;;;7.10;1.27;;;12.80;99.90;;;;;;4972497;28;20022;-92
2022/11/08 01:01:14;;;;;;;7.22;1.80;;;12.80;99.90;;;;;;4957185;28;20031;-92
2022/11/08 01:03:40;;;;;;;8.13;1.27;;;12.80;99.90;;;;;;4956696;28;20081;-93
2022/11/08 01:06:08;;;;;;;7.07;1.40;;;12.70;99.90;;;;;;4956339;28;20134;-92
2022/11/08 01:08:33;;;;;;;9.68;1.73;;;12.70;99.90;;;;;;4956552;28;20023;-93
2022/11/08 01:11:05;;;;;;;4.78;1.17;;;12.70;99.90;;;;;;4956612;28;20374;-91
2022/11/08 01:13:32;;;;;;;9.48;2.13;;;12.70;99.90;;;;;;4956633;28;20026;-92
2022/11/08 01:16:04;;;;;;;7.43;1.67;;;12.70;99.90;;;;;;4956686;28;20038;-92
2022/11/08 01:18:29;;;;;;;5.82;1.50;;;12.70;99.90;;;;;;4956407;28;20027;-91
2022/11/08 01:20:55;;;;;;;12.63;1.98;;;12.60;99.90;;;;;;4957288;28;20147;-91
2022/11/08 01:23:20;;;;;;;4.75;1.20;;;12.60;99.90;;;;;;4956616;28;20117;-91
2022/11/08 01:25:47;;;;;;;6.05;1.15;;;12.60;99.90;;;;;;4956803;28;20415;-92
2022/11/08 01:28:13;;;;;;;7.82;1.35;;;12.50;99.90;;;;;;4956797;28;20069;-91
2022/11/08 01:30:41;;;;;;;5.97;1.15;;;12.50;99.90;;;;;;4952739;28;20055;-93
2022/11/08 01:33:07;;;;;;;2.95;0.50;;;12.40;99.90;;;;;;4956516;28;20459;-92
2022/11/08 01:35:34;;;;;;;4.72;0.80;;;12.20;99.90;;;;;;4956506;28;20031;-93
2022/11/08 01:38:00;;;;;;;2.67;0.77;;;12.00;99.90;;;;;;4955917;28;20023;-91
2022/11/08 01:40:27;;;;;;;1.50;0.60;;;11.80;99.90;;;;;;4955706;28;20037;-95
2022/11/08 01:42:54;;;;;;;8.63;0.80;;;11.70;99.90;;;;;;4956307;28;20027;-92
2022/11/08 01:46:00;;;;;;;4.25;0.93;;;11.50;99.90;;;;;;4956028;28;20384;-93
2022/11/08 01:48:27;;;;;;;3.33;0.77;;;11.40;99.90;;;;;;4972059;28;20549;-93
2022/11/08 01:50:57;;;;;;;5.43;1.00;;;11.30;99.90;;;;;;4956612;28;20192;-93
2022/11/08 01:53:23;;;;;;;4.32;0.75;;;11.20;99.90;;;;;;4956634;28;20034;-91
2022/11/08 01:55:49;;;;;;;3.40;0.93;;;11.10;99.90;;;;;;4956287;28;20027;-93
2022/11/08 01:58:20;;;;;;;3.50;0.68;;;11.10;99.90;;;;;;4953134;28;20089;-91
2022/11/08 02:00:45;;;;;;;;;;;11.00;99.90;;;;;;4973760;28;20070;-93
2022/11/08 02:03:15;;;;;;;1.88;0.30;;;11.00;99.90;;;;;;4955643;28;19906;-92
2022/11/08 02:05:41;;;;;;;2.70;0.50;;;10.90;99.90;;;;;;4972160;28;20042;-91
2022/11/08 02:08:20;;;;;;;5.50;1.05;;;10.90;99.90;;;;;;4972669;28;20078;-91
2022/11/08 02:10:50;;;;;;;4.35;0.85;;;10.80;99.90;;;;;;4956321;28;20027;-92
2022/11/08 02:13:22;;;;;;;3.63;0.60;;;10.80;99.90;;;;;;4956332;28;20030;-91
2022/11/08 02:15:48;;;;;;;6.55;1.38;;;10.80;99.90;;;;;;4955944;28;20129;-94
2022/11/08 02:18:15;;;;;;;6.80;0.50;;;10.70;99.90;;;;;;4955727;28;20185;-93
2022/11/08 02:20:54;;;;;;;4.15;0.98;;;10.70;99.90;;;;;;4956034;28;20070;-94
2022/11/08 02:23:22;;;;;;;2.35;0.60;;;10.70;99.90;;;;;;4924202;29;20460;-91
2022/11/08 02:25:48;;;;;;;4.72;1.00;;;10.60;99.90;;;;;;4933160;29;20062;-93
2022/11/08 02:28:14;;;;;;;4.47;0.60;;;10.60;99.90;;;;;;4934636;29;20028;-91
2022/11/08 02:30:41;;;;;;;1.92;0.57;;;10.60;99.90;;;;;;4934451;29;20036;-94
2022/11/08 02:33:16;;;;;;;6.72;0.80;;;10.50;99.90;;;;;;4934036;29;20031;-91
2022/11/08 02:35:43;;;;;;;2.22;0.50;;;10.50;99.90;;;;;;4933576;29;20023;-94
2022/11/08 02:38:09;;;;;;;2.22;0.50;;;10.40;99.90;;;;;;4929468;28;20422;-94
2022/11/08 02:40:54;;;;;;;3.75;0.55;;;10.40;99.90;;;;;;4933291;29;20035;-93
2022/11/08 02:43:21;;;;;;;4.07;0.60;;;10.40;99.90;;;;;;4917454;29;20557;-93
2022/11/08 02:45:48;;;;;;;3.67;0.30;;;10.40;99.90;;;;;;4934668;29;20062;-91
2022/11/08 02:48:13;;;;;;;4.28;0.65;;;10.30;99.90;;;;;;4934810;29;20040;-92
2022/11/08 02:50:40;;;;;;;3.03;0.45;;;10.30;99.90;;;;;;4936643;29;20371;-92
2022/11/08 02:53:06;;;;;;;3.15;0.55;;;10.30;99.90;;;;;;4940590;29;20492;-93
2022/11/08 02:55:33;;;;;;;1.58;0.50;;;10.20;99.90;;;;;;4926484;29;20481;-92
2022/11/08 02:58:00;;;;;;;2.08;0.40;;;10.20;99.90;;;;;;4936658;29;20075;-93
2022/11/08 03:00:26;;;;;;;2.05;0.93;;;10.20;99.90;;;;;;4933096;29;20126;-94
2022/11/08 03:02:56;;;;;;;6.28;1.00;;;10.20;99.90;;;;;;4936643;29;20055;-93
2022/11/08 03:05:23;;;;;;;5.28;0.80;;;10.10;99.90;;;;;;4920478;29;20076;-94
2022/11/08 03:07:49;;;;;;;2.25;0.50;;;10.10;99.90;;;;;;4920753;29;20090;-92
2022/11/08 03:10:15;;;;;;;1.15;0.40;;;10.10;99.90;;;;;;4936587;29;20032;-93
2022/11/08 03:12:44;;;;;;;2.42;0.82;;;10.00;99.90;;;;;;4936784;29;20027;-93
2022/11/08 03:15:12;;;;;;;0.95;0.45;;;10.00;99.90;;;;;;4936213;29;20028;-92
2022/11/08 03:17:38;;;;;;;2.75;0.73;;;10.00;99.90;;;;;;4936481;29;20117;-93
2022/11/08 03:20:05;;;;;;;2.97;0.55;;;10.00;99.90;;;;;;4936461;29;20027;-93
2022/11/08 03:22:31;;;;;;;2.42;0.57;;;10.00;99.90;;;;;;4936390;29;20529;-93
2022/11/08 03:24:56;;;;;;;1.63;0.50;;;10.00;99.90;;;;;;4920267;29;20028;-92
2022/11/08 03:27:22;;;;;;;2.65;0.55;;;10.00;99.90;;;;;;4919781;29;20043;-93
2022/11/08 03:29:48;;;;;;;2.38;0.60;;;10.00;99.90;;;;;;4919927;29;20027;-92
2022/11/08 03:32:15;;;;;;;3.13;0.50;;;10.00;99.90;;;;;;4920187;29;20035;-93
2022/11/08 03:34:41;;;;;;;2.83;0.40;;;9.90;99.90;;;;;;4922771;29;20028;-92
2022/11/08 03:37:09;;;;;;;7.20;1.00;;;9.90;99.90;;;;;;4924318;29;20034;-92
2022/11/08 03:39:36;;;;;;;2.75;0.40;;;9.90;99.90;;;;;;4920141;29;20034;-93
2022/11/08 03:42:03;;;;;;;5.30;0.73;;;9.90;99.90;;;;;;4936913;29;20024;-92
2022/11/08 03:44:30;;;;;;;1.45;0.60;;;9.90;99.90;;;;;;4916289;29;20055;-92
2022/11/08 03:46:56;;;;;;;4.55;0.90;;;9.80;99.90;;;;;;4920494;29;20035;-92
2022/11/08 03:49:22;;;;;;;1.23;0.47;;;9.80;99.90;;;;;;4921239;29;20050;-91
2022/11/08 03:51:47;;;;;;;3.60;0.73;;;9.80;99.90;;;;;;4922254;29;20031;-93
2022/11/08 03:54:13;;;;;;;3.25;0.73;;;9.80;99.90;;;;;;4923001;29;20039;-90
2022/11/08 03:56:39;;;;;;;1.75;0.55;;;9.80;99.90;;;;;;4923228;29;20032;-92
2022/11/08 03:59:05;;;;;;;2.28;0.65;;;9.70;99.90;;;;;;4921969;29;20023;-93
2022/11/08 04:01:31;;;;;;;2.30;0.50;;;9.70;99.90;;;;;;4916733;29;20143;-91
2022/11/08 04:03:57;;;;;;;2.25;0.40;;;9.70;99.90;;;;;;4920519;29;20131;-92
2022/11/08 04:06:23;;;;;;;2.22;0.70;;;9.70;99.90;;;;;;4921725;29;20079;-94
2022/11/08 04:08:49;;;;;;;1.85;0.40;;;9.60;99.90;;;;;;4920773;29;20502;-93
2022/11/08 04:16:43;;;;;;;1.95;0.40;;;9.50;99.90;;;;;;4937335;29;20086;-92
2022/11/08 04:21:54;;;;;;;4.35;0.90;;;9.50;99.90;;;;;;4937097;29;20070;-92
2022/11/08 04:24:20;;;;;;;1.23;0.50;;;9.40;99.90;;;;;;4935646;29;20028;-91
2022/11/08 04:26:46;;;;;;;1.08;0.40;;;9.40;99.90;;;;;;4919762;29;20086;-91
2022/11/08 04:29:12;;;;;;;1.08;0.47;;;9.40;99.90;;;;;;4920972;29;20095;-92
2022/11/08 04:31:38;;;;;;;3.83;0.75;;;9.30;99.90;;;;;;4936644;29;20557;-91
2022/11/08 04:34:04;;;;;;;5.70;1.05;;;9.30;99.90;;;;;;4935274;29;20117;-92
2022/11/08 04:36:30;;;;;;;3.35;0.70;;;9.30;99.90;;;;;;4918888;29;20144;-91
2022/11/08 04:38:55;;;;;;;8.68;0.88;;;9.20;99.90;;;;;;4919230;29;20031;-90
2022/11/08 04:41:22;;;;;;;2.47;0.65;;;9.20;99.90;;;;;;4934466;29;20031;-91
2022/11/08 04:43:49;;;;;;;2.30;0.57;;;9.20;99.90;;;;;;4934806;29;20059;-90
2022/11/08 04:46:18;;;;;;;3.45;0.75;;;9.20;99.90;;;;;;4934898;29;20046;-91
2022/11/08 04:48:45;;;;;;;4.10;0.73;;;9.10;99.90;;;;;;4931215;29;20041;-92
2022/11/08 04:51:13;;;;;;;5.50;0.70;;;9.10;99.90;;;;;;4934821;29;20028;-91
2022/11/08 04:53:39;;;;;;;5.28;1.13;;;9.10;99.90;;;;;;4950317;29;20078;-92
2022/11/08 04:56:14;;;;;;;3.42;0.82;;;9.10;99.90;;;;;;4919071;29;20039;-93
2022/11/08 04:58:44;;;;;;;2.42;0.88;;;9.00;99.90;;;;;;4934968;29;20031;-91
2022/11/08 05:01:13;;;;;;;3.45;0.52;;;9.00;99.90;;;;;;4935072;29;20028;-91
2022/11/08 05:03:39;;;;;;;2.85;0.70;;;9.00;99.90;;;;;;4930748;29;20039;-92
2022/11/08 05:06:09;;;;;;;3.22;0.80;;;9.00;99.90;;;;;;4934191;29;20039;-93
2022/11/08 05:08:35;;;;;;;2.63;1.15;;;9.00;99.90;;;;;;4934700;29;20059;-92
2022/11/08 05:11:02;;;;;;;4.40;0.73;;;8.90;99.90;;;;;;4918278;29;20493;-91
2022/11/08 05:13:29;;;;;;;1.45;0.80;;;8.90;99.90;;;;;;4934025;29;20036;-91
2022/11/08 05:16:00;;;;;;;2.95;0.82;;;8.90;99.90;;;;;;4934538;29;20524;-91
2022/11/08 05:18:26;;;;;;;5.57;0.98;;;8.90;99.90;;;;;;4934366;29;20035;-92
2022/11/08 05:23:40;;;;;;;1.77;0.52;;;8.90;99.90;;;;;;4935347;29;20114;-91
2022/11/08 05:26:07;;;;;;;2.60;0.88;;;8.90;99.90;;;;;;4918055;29;20490;-92
2022/11/08 05:28:33;;;;;;;3.40;1.10;;;8.90;99.90;;;;;;4934159;29;20032;-91
2022/11/08 05:30:58;;;;;;;4.63;1.45;;;8.90;99.90;;;;;;4934176;29;20042;-90
2022/11/08 05:33:24;;;;;;;2.38;0.60;;;8.90;99.90;;;;;;4935282;29;20024;-91
2022/11/08 05:35:51;;;;;;;2.95;1.27;;;8.90;99.90;;;;;;4918417;29;20043;-92
2022/11/08 05:38:17;;;;;;;7.18;1.48;;;8.90;99.90;;;;;;4918657;29;20031;-92
2022/11/08 05:40:43;;;;;;;6.38;1.10;;;8.90;99.90;;;;;;4933760;29;20042;-89
2022/11/08 05:43:09;;;;;;;1.35;0.70;;;8.90;99.90;;;;;;4918384;29;20019;-92
2022/11/08 05:45:35;;;;;;;3.75;0.90;;;8.80;99.90;;;;;;4917693;29;20082;-91
2022/11/08 05:48:02;;;;;;;2.13;0.98;;;8.80;99.90;;;;;;4918236;29;20032;-92
2022/11/08 05:50:32;;;;;;;4.35;1.15;;;8.80;99.90;;;;;;4918329;29;20019;-91
2022/11/08 05:52:58;;;;;;;2.90;1.33;;;8.80;99.90;;;;;;4934152;29;20028;-92
2022/11/08 05:55:24;;;;;;;4.63;1.60;;;8.80;99.90;;;;;;4918328;29;20291;-91
2022/11/08 05:57:50;;;;;;;1.92;0.93;;;8.80;99.90;;;;;;4913909;29;20611;-91
2022/11/08 06:00:16;;;;;;;2.72;0.80;;;8.80;99.90;;;;;;4934420;29;20123;-91
2022/11/08 06:02:42;;;;;;;3.63;0.93;;;8.70;99.90;;;;;;4918133;29;20059;-91
2022/11/08 06:05:08;;;;;;;4.70;1.42;;;8.70;99.90;;;;;;4933449;29;20103;-90
2022/11/08 06:07:34;;;;;;;6.50;1.25;;;8.70;99.90;;;;;;4931809;29;20036;-91
2022/11/08 06:10:00;;;;;;;9.07;1.27;;;8.70;99.90;;;;;;4918377;29;20051;-91
2022/11/08 06:12:26;;;;;;;2.40;0.80;;;8.70;99.90;;;;;;4918057;29;20066;-91
2022/11/08 06:14:51;;;;;;;2.83;0.63;;;8.70;99.90;;;;;;4935171;29;20028;-93
2022/11/08 06:17:18;;;;;;;5.72;1.83;;;8.70;99.90;;;;;;4918606;29;20565;-91
2022/11/08 06:19:44;;;;;;;3.20;0.95;;;8.70;99.90;;;;;;4933789;29;20028;-91
2022/11/08 06:22:09;;;;;;;10.23;1.15;;;8.70;99.90;;;;;;4934304;29;20043;-90
2022/11/08 06:24:35;;;;;;;7.82;1.00;;;8.70;99.90;;;;;;4936040;29;20051;-90
2022/11/08 06:27:01;;;;;;;4.85;1.17;;;8.70;99.90;;;;;;4938625;29;20044;-89
2022/11/08 06:29:27;;;;;;;3.83;1.02;;;8.70;99.90;;;;;;4921832;29;20074;-90
2022/11/08 06:31:52;;;;;;;5.30;1.20;;;8.70;99.90;;;;;;4937567;29;20466;-91
2022/11/08 06:34:18;;;;;;;3.28;0.90;;;8.80;99.90;;;;;;4937801;29;20028;-90
2022/11/08 06:36:44;;;;;;;7.60;1.08;;;8.70;99.90;;;;;;4920918;29;20036;-90
2022/11/08 06:39:09;;;;;;;3.08;1.00;;;8.80;99.90;;;;;;4921308;29;20050;-91
2022/11/08 06:41:35;;;;;;;5.13;1.08;;;8.80;99.90;;;;;;4937492;29;20497;-90
2022/11/08 06:44:01;;;;;;;4.88;1.23;;;8.70;99.90;;;;;;4921360;29;20524;-90
2022/11/08 06:46:27;;;;;;;6.20;1.20;;;8.80;99.90;;;;;;4932112;29;20559;-92
2022/11/08 06:48:52;;;;;;;4.13;1.02;;;8.80;99.90;;;;;;4948912;28;20027;-91
2022/11/08 06:51:18;;;;;;;8.30;1.40;;;8.80;99.90;;;;;;4945137;29;20390;-90
2022/11/08 06:53:44;;;;;;;3.72;1.30;;;8.80;99.90;;;;;;4942539;29;20032;-91
2022/11/08 06:56:10;;;;;;;4.32;1.23;;;8.80;99.90;;;;;;4945804;29;20027;-90
2022/11/08 06:58:36;;;;;;;10.75;1.58;;;8.80;99.90;;;;;;4939991;29;20034;-91
2022/11/08 07:01:04;;;;;;;6.05;1.13;;;8.90;99.90;;;;;;4951786;29;20035;-92
2022/11/08 07:03:30;;;;;;;5.45;1.33;;;8.90;99.90;;;;;;4945652;29;20143;-92
2022/11/08 07:05:56;;;;;;;4.90;1.98;;;8.90;99.90;;;;;;4946134;29;20110;-92
2022/11/08 07:08:22;;;;;;;5.65;0.98;;;8.80;99.90;;;;;;4939569;29;20130;-90
2022/11/08 07:10:48;;;;;;;8.15;1.80;;;8.90;99.90;;;;;;4944728;29;20477;-91
2022/11/08 07:13:14;;;;;;;7.03;1.30;;;8.90;99.90;;;;;;4939722;29;20130;-93
2022/11/08 07:15:41;;;;;;;11.60;1.20;;;8.90;99.90;;;;;;4946866;29;20389;-92
2022/11/08 07:18:10;;;;;;;5.72;1.10;;;8.90;99.90;;;;;;4939627;29;20130;-91
2022/11/08 07:20:36;;;;;;;11.55;2.50;;;8.90;99.90;;;;;;4944728;29;20024;-93
2022/11/08 07:23:02;;;;;;;8.43;1.45;;;8.90;99.90;;;;;;4947192;29;20039;-90
2022/11/08 07:25:30;;;;;;;4.97;1.35;;;8.90;99.90;;;;;;4947932;29;20421;-91
2022/11/08 07:28:01;;;;;;;8.10;1.23;;;8.90;99.90;;;;;;4939923;29;20477;-92
2022/11/08 07:30:28;;;;;;;5.63;1.38;;;8.90;99.90;;;;;;4955750;29;20031;-92
2022/11/08 07:32:54;;;;;;;7.20;1.05;;;8.90;99.90;;;;;;4947042;29;20126;-92
2022/11/08 07:35:20;;;;;;;6.18;0.93;;;9.00;99.90;;;;;;4945426;28;20023;-91
2022/11/08 07:37:46;;;;;;;5.63;1.60;;;9.00;99.90;;;;;;4940118;29;20047;-92
2022/11/08 07:40:13;;;;;;;8.38;1.80;;;9.00;99.90;;;;;;4940243;29;20034;-92
2022/11/08 07:42:39;;;;;;;10.93;1.85;;;9.00;99.90;;;;;;4949106;29;20028;-91
2022/11/08 07:45:07;;;;;;;7.63;1.50;;;9.10;99.90;;;;;;4947541;29;20039;-93
2022/11/08 07:47:32;;;;;;;7.72;1.80;;;9.10;99.90;;;;;;4963561;29;20069;-93
2022/11/08 07:49:58;;;;;;;8.75;1.35;;;9.10;99.90;;;;;;4939745;29;20035;-92
2022/11/08 07:52:24;;;;;;;11.63;1.83;;;9.20;99.90;;;;;;4939493;29;20493;-94
2022/11/08 07:54:49;;;;;;;8.98;1.67;;;9.20;99.90;;;;;;4940321;29;20101;-92
2022/11/08 07:57:15;;;;;;;9.23;1.98;;;9.30;99.90;;;;;;4940250;29;20055;-92
2022/11/08 07:59:41;;;;;;;10.55;1.50;;;9.30;99.90;;;;;;4939923;29;20039;-93
2022/11/08 08:02:09;;;;;;;8.82;1.85;;;9.30;99.90;;;;;;4940007;29;20030;-93
2022/11/08 08:04:35;;;;;;;8.85;1.70;;;9.30;99.90;;;;;;4937941;29;20034;-94
2022/11/08 08:07:00;;;;;;;12.25;2.00;;;9.40;99.90;;;;;;4941279;29;20039;-93
2022/11/08 08:09:26;;;;;;;13.32;1.85;;;9.40;99.90;;;;;;4955656;29;20027;-93
2022/11/08 08:11:52;;;;;;;15.43;3.65;;;9.40;99.90;;;;;;4938833;29;20027;-94
2022/11/08 08:14:17;;;;;;;9.90;1.85;;;9.50;99.90;;;;;;4940072;29;20077;-95
2022/11/08 08:16:43;;;;;;;15.65;2.15;;;9.50;99.90;;;;;;4947901;29;20031;-93
2022/11/08 08:19:09;;;;;;;20.67;3.08;;;9.60;99.90;;;;;;4940053;29;20020;-93
2022/11/08 08:21:35;;;;;;;11.57;2.70;;;9.60;99.90;;;;;;4939018;29;20031;-93
2022/11/08 08:24:00;;;;;;;9.65;1.63;;;9.60;99.90;;;;;;4949447;29;20515;-91
2022/11/08 08:26:27;;;;;;;17.75;2.10;;;9.60;99.90;;;;;;4956192;29;20496;-93
2022/11/08 08:28:53;;;;;;;8.52;2.05;;;9.70;99.90;;;;;;4938293;29;20047;-93
2022/11/08 08:31:19;;;;;;;9.05;1.70;;;9.70;99.90;;;;;;4939264;29;20027;-91
2022/11/08 08:33:44;;;;;;;14.25;3.25;;;9.70;99.90;;;;;;4941899;29;20023;-92
2022/11/08 08:36:10;;;;;;;14.10;2.55;;;9.70;99.90;;;;;;4939082;29;20461;-92
2022/11/08 08:38:37;;;;;;;12.75;2.08;;;9.70;99.90;;;;;;4938244;28;20497;-92
2022/11/08 08:41:03;;;;;;;11.85;1.70;;;9.70;99.90;;;;;;4937158;29;20031;-95
2022/11/08 08:43:31;;;;;;;11.35;1.88;;;9.80;99.90;;;;;;4954818;29;20035;-92
2022/11/08 08:46:05;;;;;;;12.88;1.60;;;9.80;99.90;;;;;;4946060;29;20043;-91
2022/11/08 08:48:32;;;;;;;19.98;2.47;;;9.70;99.90;;;;;;4945649;29;20110;-94
2022/11/08 08:50:58;;;;;;;15.95;2.03;;;9.80;99.90;;;;;;4949656;29;20035;-94
2022/11/08 08:53:25;;;;;;;14.93;2.13;;;9.80;99.90;;;;;;4952192;29;20031;-95
2022/11/08 08:55:53;;;;;;;11.90;1.80;;;9.80;99.90;;;;;;4950223;29;20054;-95
2022/11/08 08:58:20;;;;;;;17.65;2.70;;;9.80;99.90;;;;;;4963493;29;20042;-94
2022/11/08 09:00:46;;;;;;;13.88;2.05;;;9.80;99.90;;;;;;4945158;29;20023;-95
2022/11/08 09:03:12;;;;;;;21.98;2.67;;;9.80;99.90;;;;;;4947843;29;20062;-94
2022/11/08 09:05:42;;;;;;;14.23;2.50;;;9.80;99.90;;;;;;4963366;29;20090;-94
2022/11/08 09:08:08;;;;;;;;;;;9.90;99.90;;;;;;4950188;29;20031;-94
2022/11/08 09:10:34;;;;;;;19.80;2.47;;;9.90;99.90;;;;;;4951008;29;19914;-94
2022/11/08 09:13:01;;;;;;;15.48;2.03;;;10.00;99.90;;;;;;4949895;29;20505;-94
2022/11/08 09:15:28;;;;;;;18.98;2.30;;;10.00;99.90;;;;;;4950990;29;20118;-94
2022/11/08 09:17:54;;;;;;;12.98;1.60;;;10.10;99.90;;;;;;4965594;29;20065;-95
2022/11/08 09:20:20;;;;;;;14.63;2.80;;;10.10;99.90;;;;;;4950160;29;20122;-95
2022/11/08 09:22:46;;;;;;;20.45;3.67;;;10.10;99.90;;;;;;4951503;29;20031;-96
2022/11/08 09:25:12;;;;;;;20.52;4.22;;;10.10;99.90;;;;;;4951320;29;20027;-94
2022/11/08 09:27:37;;;;;;;11.55;2.20;;;10.10;99.90;;;;;;4950727;29;20035;-94
2022/11/08 09:30:04;;;;;;;16.45;2.67;;;10.20;99.90;;;;;;4951109;29;20109;-93
2022/11/08 09:32:30;;;;;;;12.63;2.15;;;10.20;99.90;;;;;;4948462;29;20448;-96
2022/11/08 09:34:56;;;;;;;15.23;2.45;;;10.20;99.90;;;;;;4946575;29;20051;-95
2022/11/08 09:37:23;;;;;;;16.45;2.45;;;10.20;99.90;;;;;;4949192;29;20086;-95
2022/11/08 09:39:49;;;;;;;21.27;2.72;;;10.20;99.90;;;;;;4950806;29;20094;-95
2022/11/08 09:42:29;;;;;;;17.55;2.63;;;10.20;99.90;;;;;;4947967;29;20062;-94
2022/11/08 09:45:13;;;;;;;;;;;10.30;99.90;;;;;;4962650;29;20571;-95
2022/11/08 09:47:43;;;;;;;14.95;2.00;;;10.30;99.90;;;;;;4949145;29;19919;-94
2022/11/08 09:50:36;;;;;;;11.20;1.80;;;10.30;99.90;;;;;;4954019;29;20027;-95
2022/11/08 09:53:11;;;;;;;13.95;2.10;;;10.40;99.90;;;;;;4951464;29;20110;-95
2022/11/08 09:55:43;;;;;;;16.63;2.83;;;10.40;99.90;;;;;;4948981;29;20117;-95
2022/11/08 09:58:21;;;;;;;11.93;2.45;;;10.50;99.90;;;;;;4965239;28;20021;-94
2022/11/08 10:00:52;;;;;;;22.77;2.33;;;10.50;99.90;;;;;;4950056;29;20023;-95
2022/11/08 10:03:19;;;;;;;21.38;2.45;;;10.50;99.90;;;;;;4968331;29;20023;-95
2022/11/08 10:06:25;;;;;;;17.73;3.17;;;10.60;99.90;;;;;;4953632;29;20051;-94
2022/11/08 10:09:28;;;;;;;17.25;1.92;;;10.60;99.90;;;;;;4971556;29;20027;-95
2022/11/08 10:12:19;;;;;;;14.05;1.98;;;10.70;99.90;;;;;;4970002;29;20028;-93
2022/11/08 10:15:19;;;;;;;14.57;2.80;;;10.70;99.90;;;;;;4954955;29;20050;-94
2022/11/08 10:18:22;;;;;;;17.25;2.40;;;10.80;99.90;;;;;;4970067;29;20047;-94
2022/11/08 10:20:51;;;;;;;21.15;2.65;;;10.90;99.90;;;;;;4966938;29;20035;-94
2022/11/08 10:23:22;;;;;;;17.35;4.20;;;11.00;99.90;;;;;;4968522;29;20028;-94
2022/11/08 10:25:57;;;;;;;18.02;2.42;;;11.10;99.90;;;;;;4965145;29;20031;-95
2022/11/08 10:28:33;;;;;;;21.73;2.25;;;11.20;99.90;;;;;;4967883;29;20053;-96
2022/11/08 10:31:02;;;;;;;19.50;3.45;;;11.30;99.90;;;;;;4951232;29;20031;-95
2022/11/08 10:33:32;;;;;;;18.67;3.75;;;11.30;99.90;;;;;;4970273;29;20101;-96
2022/11/08 10:36:05;;;;;;;18.85;2.58;;;11.30;99.90;;;;;;4960982;29;20082;-95
2022/11/08 10:38:43;;;;;;;25.63;2.78;;;11.30;99.90;;;;;;4956516;29;20043;-95
2022/11/08 10:41:30;;;;;;;18.27;2.80;;;11.30;99.90;;;;;;4972864;29;20100;-94
2022/11/08 10:44:14;;;;;;;22.20;2.67;;;11.30;99.90;;;;;;4976125;29;20027;-95
2022/11/08 10:46:49;;;;;;;18.30;2.88;;;11.30;99.90;;;;;;4971385;29;20151;-94
2022/11/08 10:49:22;;;;;;;18.40;2.58;;;11.30;99.90;;;;;;4952824;29;20007;-96
2022/11/08 10:51:59;;;;;;;14.40;2.10;;;11.30;99.90;;;;;;4971524;29;20035;-95
2022/11/08 10:54:48;;;;;;;24.05;4.57;;;11.30;99.90;;;;;;4952760;29;20027;-94
2022/11/08 10:57:16;;;;;;;16.77;2.55;;;11.40;99.90;;;;;;4951508;29;20093;-96
2022/11/08 10:59:43;;;;;;;24.70;2.63;;;11.50;99.90;;;;;;4953051;29;20031;-96
2022/11/08 11:02:28;;;;;;;16.83;2.17;;;11.50;99.90;;;;;;4953979;29;20031;-95
2022/11/08 11:05:14;;;;;;;18.27;2.10;;;11.50;99.90;;;;;;4954036;29;20030;-94
2022/11/08 11:07:40;;;;;;;15.13;2.45;;;11.60;99.90;;;;;;4963835;29;20142;-96
2022/11/08 11:10:23;;;;;;;23.05;2.83;;;11.60;99.90;;;;;;4949999;29;20110;-95
2022/11/08 11:13:01;;;;;;;24.55;3.20;;;11.70;99.90;;;;;;4966472;29;20043;-96
2022/11/08 11:15:44;;;;;;;18.15;2.75;;;11.80;99.90;;;;;;4949612;29;20027;-95
2022/11/08 11:18:30;;;;;;;13.32;2.13;;;11.90;99.90;;;;;;4970319;28;20031;-95
2022/11/08 11:21:15;;;;;;;11.73;1.90;;;11.90;99.90;;;;;;4951706;29;20019;-95
2022/11/08 11:23:48;;;;;;;23.38;2.90;;;12.00;99.90;;;;;;4951020;29;20028;-95
2022/11/08 11:26:33;;;;;;;14.65;2.75;;;12.00;99.90;;;;;;4969249;29;20053;-96
2022/11/08 11:29:12;;;;;;;14.20;2.67;;;12.00;99.90;;;;;;4953196;29;20039;-95
2022/11/08 11:31:46;;;;;;;20.48;2.30;;;12.00;99.90;;;;;;4968461;29;20123;-95
2022/11/08 11:34:18;;;;;;;14.50;2.38;;;12.10;99.90;;;;;;4951245;29;20074;-95
2022/11/08 11:36:56;;;;;;;13.52;1.73;;;12.10;99.90;;;;;;4969026;29;20081;-96
2022/11/08 11:39:27;;;;;;;17.73;1.70;;;12.00;99.90;;;;;;4952456;29;20050;-95
2022/11/08 11:42:03;;;;;;;18.52;2.28;;;12.00;99.90;;;;;;4953678;29;20019;-94
2022/11/08 11:44:49;;;;;;;19.42;1.98;;;12.00;99.90;;;;;;4952890;29;20083;-96
2022/11/08 11:47:19;;;;;;;15.02;1.70;;;11.90;99.90;;;;;;4966238;29;20039;-96
2022/11/08 11:49:47;;;;;;;12.93;2.10;;;11.90;99.90;;;;;;4964677;29;20027;-94
2022/11/08 11:52:19;;;;;;;14.05;1.70;;;11.90;99.90;;;;;;4961579;29;20095;-94
2022/11/08 11:54:48;;;;;;;12.82;2.00;;;11.90;99.90;;;;;;4950015;29;20027;-96
2022/11/08 11:57:50;;;;;;;12.18;1.92;;;11.80;99.90;;;;;;4953385;29;20532;-95
2022/11/08 12:00:16;;;;;;;15.68;2.08;;;11.80;99.90;;;;;;4978294;29;20039;-95
2022/11/08 12:03:19;;;;;;;16.80;2.65;;;11.70;99.90;;;;;;4952864;29;20027;-96
2022/11/08 12:06:03;;;;;;;22.67;2.75;;;11.60;99.90;;;;;;4949574;29;20089;-93
2022/11/08 12:09:07;;;;;;;12.07;1.90;;;11.50;99.90;;;;;;4964106;29;20027;-93
2022/11/08 12:11:39;;;;;;;25.45;2.97;;;11.50;99.90;;;;;;4957241;29;20122;-96
2022/11/08 12:14:41;;;;;;;18.35;2.58;;;11.40;99.90;;;;;;4946007;29;20023;-92
2022/11/08 12:17:41;;;;;;;10.75;1.33;;;11.40;99.90;;;;;;4942232;29;20035;-94
2022/11/08 12:20:17;;;;;;;6.82;1.30;;;11.20;99.90;;;;;;4957896;29;20039;-92
2022/11/08 12:23:14;;;;;;;1.95;0.70;;;11.00;99.90;;;;;;4958133;28;20034;-93
2022/11/08 12:26:10;;;;;;;3.60;1.23;;;10.70;99.90;;;;;;4957223;29;20046;-94
2022/11/08 12:29:02;;;;;;;3.60;0.60;;;10.50;99.90;;;;;;4938202;29;20042;-93
2022/11/08 12:31:48;;;;;;;5.32;0.68;;;10.30;99.90;;;;;;4942865;29;20058;-95
2022/11/08 12:34:48;;;;;;;2.95;0.38;;;10.20;99.90;;;;;;4959229;29;20031;-94
2022/11/08 12:37:28;;;;;;;5.30;0.75;;;10.10;99.90;;;;;;4936680;29;20461;-93
2022/11/08 12:40:13;;;;;;;4.80;0.47;;;10.10;99.90;;;;;;4961400;28;20489;-94
2022/11/08 12:42:50;;;;;;;3.53;0.57;;;10.00;99.90;;;;;;4940848;29;20039;-93
2022/11/08 12:45:28;;;;;;;5.60;0.70;;;10.00;99.90;;;;;;4959949;29;20043;-94
2022/11/08 12:48:22;;;;;;;5.03;0.95;;;10.00;99.90;;;;;;4959987;29;20039;-94
2022/11/08 12:50:59;;;;;;;7.57;2.25;;;10.10;99.90;;;;;;4959218;29;20059;-95
2022/11/08 12:53:43;;;;;;;7.55;2.88;;;10.10;99.90;;;;;;4960182;29;20090;-94
2022/11/08 12:56:16;;;;;;;4.68;1.50;;;10.20;99.90;;;;;;4949207;29;20027;-94
2022/11/08 12:58:53;;;;;;;4.93;1.20;;;10.20;99.90;;;;;;4943106;29;20023;-94
2022/11/08 13:01:20;;;;;;;3.40;1.40;;;10.20;99.90;;;;;;4959547;29;20031;-95
2022/11/08 13:04:03;;;;;;;6.40;1.70;;;10.30;99.90;;;;;;4943305;29;20113;-94
2022/11/08 13:06:52;;;;;;;5.45;0.80;;;10.30;99.90;;;;;;4942079;29;20067;-95
2022/11/08 13:09:33;;;;;;;4.82;1.35;;;10.40;99.90;;;;;;4940548;29;20062;-95
2022/11/08 13:12:11;;;;;;;3.55;0.52;;;10.30;99.90;;;;;;4959172;29;20039;-94
2022/11/08 13:14:37;;;;;;;2.28;0.45;;;10.40;99.90;;;;;;4942446;29;20027;-95
2022/11/08 13:17:15;;;;;;;3.95;0.85;;;10.40;99.90;;;;;;4962912;29;20035;-94
2022/11/08 13:19:47;;;;;;;4.15;0.95;;;10.70;99.90;;;;;;4945780;29;20028;-95
2022/11/08 13:22:31;;;;;;;5.20;1.05;;;11.10;99.90;;;;;;4969155;29;20035;-94
2022/11/08 13:25:17;;;;;;;3.40;0.85;;;11.40;99.90;;;;;;4976840;28;20034;-95